Página principal
METAR-TAF:

METAR-TAF

Aeroportos :

Aeroporto de São Pedro

Ilha de São Vicente, Cabo Verde

latitude: 16-49-59N, longitude: 25-03-25W, altura: 20 m

Observação actual do tempo

O boletim foi feito há 52 minutos, às 10:00 UTC
Vento 24 kt de es-nordeste
Temperatura 25°C
Humidade 69%
Pressão 1016 hPa
Visibilidade 10 km ou mais
Poucas nuvensa uma altura de 1800 ft

METAR: GVSV 071000Z 06024KT 9999 FEW018 25/19 Q1016 NOSIG

Hora: 09:52 (10:52 UTC)

Previsão

O boletim foi feito há 5 horas e 52 minutos, às 05:00 UTC
Previsão válida de 07 às 06 UTC a 08 às 12 UTC
Vento 18 kt de nordeste
Visibilidade 10 km ou mais
Nuvens dispersasa uma altura de 2000 ft
Probabilidade 40% :
Temporariamente
de 07 às 15 UTC a 07 às 21 UTC
Vento 18 kt de es-nordeste com rajadas de 28 kt

TAF: GVSV 070500Z 0706/0812 05018KT 9999 SCT020 PROB40 TEMPO 0715/0721 06018G28KT

Observações e previsões do tempo de mais de 4000 aeroportos (mensagens METAR e TAF).

As estações disponíveis são os pontos amarelos e vermelhos sobre o mapa.

Mova o rato sobre o mapa para ver o nome da estação.

Depois clique no ponto para visualizar as observações e previsões meteorológicas.

Para alterar o mapa : clique nos botões verdes com uma cruz preta para aumentar o zoom; no botão verde com uma pitada de zoom; ou nas setas verdes para mapas adjacentes.


METAR-TAF: